Ridgecrest, CA

3:13 AM PDT on April 21, 2015 (GMT -0700)
Edwards AFB North Base | | Change Station
CLOSE
Current Station
Airport
Location: Edwards AFB North Base,
Elevation: 2300 ft
Nearby Weather Stations

Elev 2300 ft 34.99 °N, 117.86 °W | Updated 18 minutes ago

Clear
Clear
56 °F
Feels Like 56 °F
N
8
Wind Variable Wind from SW

Today
High -- | Low -- °F
--% Chance of Precip.
Yesterday
High -- | Low -- °F
Precip. -- in
6:10 AM 7:28 PM
Waxing Crescent, 9% visible
Pressure 29.74 in
Visibility 10.0 miles
Clouds Clear
Dew Point 36 °F
Humidity 47%
Rainfall 0.00 in
Snow Depth Not available.
UV 0 out of 12
Pollen 9.00 out of 12
Air Quality Not available.
Flu Activity Sporadic
METAR K9L2 210955Z AUTO 23007KT 10SM CLR 13/02 A2978 RMK AO2 SLP070 T01330022 TSNO $

More Conditions Fewer Conditions

Pressure 29.74 in
Visibility 10.0 miles
Clouds Clear
Dew Point 36 °F
Humidity 47%
Rainfall 0.00 in
Snow Depth Not available.
UV 0 out of 12
Pollen 9.00 out of 12
Air Quality Not available.
Flu Activity Sporadic
METAR K9L2 210955Z AUTO 23007KT 10SM CLR 13/02 A2978 RMK AO2 SLP070 T01330022 TSNO $

More Conditions Fewer Conditions

10-Day Weather Forecast

Almanac

Astronomy

Apr. 21, 2015 Rise Set
Actual Time
Civil Twilight
Nautical Twilight
Astronomical Twilight
Moon
Length of Visible Light
Length of Day
Tomorrow will be .
, % of the Moon is Illuminated

Today's Extremes

State Highs State Lows

Community

WunderPhotos

Upload Photos

1,815,337 photos uploaded!

WunderBlogs® & News

Nearby

Air Quality

  Air Quality AQ Index Pollutant
Not available.

Snow Depth

Station Depth Elevation

Earthquake Activity

City Distance Mag. Time & Date
Minimum magnitude displayed is 2.5.

Coastal Water Temperatures

Place Temperature

Stations

Nearby Weather Stations

Station Location Temp. Windchill Dew Point Humidity Wind Precip. Elev Updated Type